Washington, West Virginia
Current Conditions -  °F | °C
As of 9:53 AM on Saturday 25 Oct 2014 (Local Time) from KPKB Reporting Station
Clear Clear  
Wind Chill: 50°   Ceiling: Unl
Heat Index: 50°   Visibility: 10mi
Dew Point: 43°   Wind: 5mph
Humidity: 77%   Direction: 200°SSW
Pressure: 30.04"   Gusts: NA
Location:  39.24°N, 81.67°W
Report Text: KPKB 251353Z 20004KT 10SM CLR 10/06 A3004 RMK AO2 SLP174 T01000061
Loading
Personal Weather Stations






























Interactive Weather Map
Tropical Storm Tracking
New forecast layout! Learn more

10-Day Weather Forecast

Advertisements
Track Severe Weather on mobile